Terminal Aerodrome Forecast
Issued by NWS

Home | Current Version | Previous Version | Text Only | Print | Product List | Glossary On
Versions: 1 2 3 4 5 6 7 8 9 10 11 12 13 14 15 16 17 18 19 20 21 22 23 24
000
FTUS41 KBOX 241132
TAFACK
TAF
KACK 241132Z 2412/2512 16020G26KT 4SM -RA BR OVC040 WS020/18050KT
     FM241300 17025G37KT 2SM RA BR OVC015 WS020/19055KT
     FM241600 17025G39KT P6SM OVC010 WS020/19055KT
     FM250300 21020G31KT P6SM BKN010 WS020/22055KT
     FM250900 23014G25KT P6SM BKN100 WS020/24040KT
     FM251000 23013G24KT P6SM BKN250=

USA.gov is the U.S. government's official web portal to all federal, state and local government web resources and services.